Time;durP1;ratioP1;P1;durP2;ratioP2;P2;SDS_P1;SDS_P2;PMS_P1;PMS_P2;Temp;Humidity;BMP_temperature;BMP_pressure;BME280_temperature;BME280_humidity;BME280_pressure;Samples;Min_cycle;Max_cycle;Signal;HPM_P1;HPM_P2
2022/07/17 00:00:48;;;;;;;7.13;2.37;;;17.80;57.50;;;;;;5016807;28;20480;-76
2022/07/17 00:03:17;;;;;;;6.70;2.67;;;17.70;57.60;;;;;;5024099;28;20970;-76
2022/07/17 00:05:45;;;;;;;6.23;2.83;;;17.60;57.80;;;;;;5021315;28;20488;-76
2022/07/17 00:08:14;;;;;;;5.20;2.30;;;17.50;57.90;;;;;;5020126;28;20475;-76
2022/07/17 00:10:44;;;;;;;12.60;2.97;;;17.50;58.00;;;;;;5021603;28;20464;-76
2022/07/17 00:13:14;;;;;;;5.37;3.00;;;17.50;58.10;;;;;;5018677;28;20472;-76
2022/07/17 00:15:42;;;;;;;7.43;2.63;;;17.50;58.30;;;;;;4999521;28;20486;-76
2022/07/17 00:18:10;;;;;;;6.40;2.77;;;17.60;58.30;;;;;;5021346;28;20464;-76
2022/07/17 00:20:38;;;;;;;10.73;2.60;;;17.50;58.20;;;;;;5018284;28;20464;-76
2022/07/17 00:23:05;;;;;;;5.33;2.60;;;17.40;58.20;;;;;;5019276;28;20539;-76
2022/07/17 00:25:33;;;;;;;8.43;3.33;;;17.40;58.30;;;;;;5021064;28;21373;-77
2022/07/17 00:28:01;;;;;;;4.30;2.00;;;17.30;58.40;;;;;;5020546;28;20460;-76
2022/07/17 00:30:38;;;;;;;9.70;2.50;;;17.30;58.40;;;;;;5021842;28;20490;-76
2022/07/17 00:33:06;;;;;;;5.90;2.70;;;17.20;58.50;;;;;;5024315;28;20492;-76
2022/07/17 00:35:34;;;;;;;6.10;2.73;;;17.20;58.50;;;;;;5023003;28;20499;-76
2022/07/17 00:38:02;;;;;;;4.40;2.20;;;17.10;58.60;;;;;;5019841;28;20497;-76
2022/07/17 00:40:31;;;;;;;6.47;2.73;;;17.10;58.70;;;;;;5025232;28;20464;-76
2022/07/17 00:42:59;;;;;;;6.10;2.70;;;17.10;58.80;;;;;;5024246;28;21035;-76
2022/07/17 00:45:27;;;;;;;7.03;2.67;;;17.00;58.80;;;;;;5023985;28;20482;-76
2022/07/17 00:47:59;;;;;;;10.53;3.07;;;16.90;58.80;;;;;;5023654;28;20581;-76
2022/07/17 00:50:30;;;;;;;5.53;2.40;;;16.90;59.00;;;;;;5025683;28;20475;-76
2022/07/17 00:52:58;;;;;;;7.23;3.10;;;16.80;59.10;;;;;;5022810;28;20586;-76
2022/07/17 00:55:26;;;;;;;9.53;3.00;;;16.80;59.20;;;;;;5024816;28;20489;-76
2022/07/17 00:58:18;;;;;;;8.73;3.17;;;16.90;59.30;;;;;;5022733;28;20459;-76
2022/07/17 01:00:46;;;;;;;4.20;2.33;;;16.90;59.30;;;;;;5024071;28;20476;-76
2022/07/17 01:03:17;;;;;;;5.33;2.20;;;17.00;59.30;;;;;;5011534;28;21002;-76
2022/07/17 01:05:45;;;;;;;4.20;2.10;;;17.00;59.30;;;;;;5023360;28;20488;-76
2022/07/17 01:08:14;;;;;;;7.07;2.50;;;16.90;59.40;;;;;;5029559;28;20465;-76
2022/07/17 01:10:43;;;;;;;5.40;2.30;;;16.90;59.40;;;;;;5030480;28;20471;-76
2022/07/17 01:13:11;;;;;;;5.87;2.47;;;16.90;59.40;;;;;;5025351;28;20617;-76
2022/07/17 01:15:40;;;;;;;5.70;2.60;;;16.90;59.40;;;;;;5020665;28;20480;-76
2022/07/17 01:18:10;;;;;;;6.53;2.47;;;16.90;59.50;;;;;;5017410;28;20459;-76
2022/07/17 01:20:43;;;;;;;6.50;2.80;;;16.90;59.50;;;;;;5025911;28;20463;-76
2022/07/17 01:23:13;;;;;;;6.50;2.30;;;16.90;59.50;;;;;;5021474;28;20457;-76
2022/07/17 01:25:43;;;;;;;4.30;2.13;;;16.90;59.50;;;;;;5021243;28;20484;-75
2022/07/17 01:28:12;;;;;;;4.83;2.57;;;16.90;59.50;;;;;;5021308;28;20461;-76
2022/07/17 01:30:51;;;;;;;4.93;2.40;;;16.90;59.40;;;;;;5020634;28;20485;-76
2022/07/17 01:33:20;;;;;;;5.00;2.23;;;16.80;59.40;;;;;;5021837;28;20498;-76
2022/07/17 01:35:51;;;;;;;5.07;2.50;;;16.80;59.50;;;;;;5029166;28;20483;-76
2022/07/17 01:38:20;;;;;;;5.80;2.47;;;16.70;59.60;;;;;;5010549;28;20452;-76
2022/07/17 01:40:48;;;;;;;5.90;2.30;;;16.70;59.70;;;;;;5022983;28;20463;-76
2022/07/17 01:43:16;;;;;;;6.17;2.60;;;16.70;59.70;;;;;;5022309;28;20447;-76
2022/07/17 01:45:44;;;;;;;5.10;2.27;;;16.70;59.80;;;;;;5023519;28;20491;-76
2022/07/17 01:48:12;;;;;;;4.43;2.47;;;16.70;59.80;;;;;;5020612;28;20839;-76
2022/07/17 01:50:40;;;;;;;6.47;2.40;;;16.70;59.80;;;;;;5021895;28;20477;-76
2022/07/17 01:53:08;;;;;;;6.70;2.43;;;16.70;59.80;;;;;;5021105;28;20479;-76
2022/07/17 01:55:38;;;;;;;6.70;3.00;;;16.60;59.80;;;;;;5023309;28;20568;-76
2022/07/17 01:58:06;;;;;;;5.07;2.40;;;16.60;59.80;;;;;;5023882;28;20464;-76
2022/07/17 02:00:34;;;;;;;4.50;2.40;;;16.60;59.90;;;;;;5020124;28;20516;-76
2022/07/17 02:03:02;;;;;;;5.40;2.53;;;16.60;59.80;;;;;;5019890;28;20455;-76
2022/07/17 02:05:30;;;;;;;5.00;2.27;;;16.60;59.80;;;;;;5011317;28;20532;-76
2022/07/17 02:07:58;;;;;;;5.93;2.50;;;16.50;59.70;;;;;;5022907;28;20509;-77
2022/07/17 02:10:27;;;;;;;4.73;2.10;;;16.40;59.60;;;;;;5018711;28;20464;-77
2022/07/17 02:12:57;;;;;;;5.00;2.40;;;16.40;59.60;;;;;;5021873;28;21036;-77
2022/07/17 02:15:25;;;;;;;4.43;2.30;;;16.30;59.80;;;;;;5020265;28;20480;-77
2022/07/17 02:17:54;;;;;;;5.47;2.70;;;16.20;59.80;;;;;;5022100;28;20884;-77
2022/07/17 02:20:22;;;;;;;4.83;2.50;;;16.10;59.80;;;;;;5021645;28;20471;-77
2022/07/17 02:22:50;;;;;;;6.80;2.37;;;16.10;60.00;;;;;;5019493;28;20499;-76
2022/07/17 02:25:18;;;;;;;4.37;2.37;;;16.10;60.10;;;;;;5009712;28;20491;-76
2022/07/17 02:27:46;;;;;;;4.47;2.40;;;16.00;60.10;;;;;;5024864;28;20485;-77
2022/07/17 02:30:17;;;;;;;8.10;2.50;;;16.00;60.30;;;;;;5023811;28;20462;-76
2022/07/17 02:32:46;;;;;;;13.30;2.33;;;16.00;60.30;;;;;;5025061;28;20486;-76
2022/07/17 02:35:14;;;;;;;5.30;2.73;;;16.00;60.50;;;;;;5025582;28;20570;-76
2022/07/17 02:37:43;;;;;;;7.13;2.50;;;16.00;60.50;;;;;;5023211;28;20467;-76
2022/07/17 02:40:12;;;;;;;4.60;2.60;;;16.00;60.60;;;;;;5025303;28;20470;-76
2022/07/17 02:42:41;;;;;;;9.87;2.57;;;16.00;60.50;;;;;;5026243;28;20464;-76
2022/07/17 02:45:10;;;;;;;6.40;2.37;;;15.90;60.60;;;;;;5028282;28;20484;-75
2022/07/17 02:47:39;;;;;;;5.03;2.23;;;15.90;60.60;;;;;;5027682;28;20468;-76
2022/07/17 02:50:09;;;;;;;5.60;2.70;;;15.90;60.60;;;;;;5029253;28;20480;-76
2022/07/17 02:52:37;;;;;;;5.63;2.97;;;15.80;60.60;;;;;;5029509;28;20486;-76
2022/07/17 02:55:06;;;;;;;5.80;2.47;;;15.80;60.60;;;;;;5018054;28;20843;-76
2022/07/17 02:57:34;;;;;;;6.13;2.00;;;15.80;60.70;;;;;;5031500;28;20468;-77
2022/07/17 03:00:03;;;;;;;5.00;2.33;;;15.80;60.80;;;;;;5032447;28;20491;-76
2022/07/17 03:02:31;;;;;;;4.73;2.30;;;15.80;60.80;;;;;;5014607;28;20478;-77
2022/07/17 03:05:00;;;;;;;8.13;2.67;;;15.80;60.70;;;;;;5025212;28;20483;-77
2022/07/17 03:07:29;;;;;;;7.17;2.60;;;15.80;60.80;;;;;;5024981;28;20464;-77
2022/07/17 03:09:57;;;;;;;7.73;2.70;;;15.70;60.70;;;;;;5024053;28;20466;-77
2022/07/17 03:12:25;;;;;;;4.93;2.40;;;15.70;60.70;;;;;;5010516;28;20472;-77
2022/07/17 03:14:52;;;;;;;5.47;2.10;;;15.60;60.60;;;;;;5012378;28;21013;-77
2022/07/17 03:17:21;;;;;;;6.90;2.13;;;15.50;60.70;;;;;;5021125;28;20479;-77
2022/07/17 03:19:49;;;;;;;6.23;2.43;;;15.40;60.70;;;;;;5022201;28;20468;-77
2022/07/17 03:22:18;;;;;;;5.33;2.23;;;15.40;60.80;;;;;;5022900;28;20472;-77
2022/07/17 03:24:46;;;;;;;7.70;2.30;;;15.40;60.80;;;;;;5022155;28;20464;-77
2022/07/17 03:27:14;;;;;;;5.40;2.40;;;15.30;61.00;;;;;;5011715;28;20977;-77
2022/07/17 03:29:42;;;;;;;4.37;2.40;;;15.30;61.10;;;;;;5023555;28;20469;-77
2022/07/17 03:32:11;;;;;;;4.57;2.33;;;15.20;61.20;;;;;;5021649;28;20495;-77
2022/07/17 03:34:39;;;;;;;8.03;2.60;;;15.20;61.30;;;;;;5021461;28;20528;-77
2022/07/17 03:37:07;;;;;;;5.73;2.27;;;15.30;61.50;;;;;;5019900;28;20463;-78
2022/07/17 03:39:37;;;;;;;5.60;2.63;;;15.30;61.50;;;;;;5004080;28;20836;-78
2022/07/17 03:42:05;;;;;;;5.83;2.40;;;15.30;61.50;;;;;;5008863;28;20464;-77
2022/07/17 03:44:33;;;;;;;5.33;2.13;;;15.30;61.40;;;;;;5023994;28;20464;-78
2022/07/17 03:47:01;;;;;;;8.53;2.00;;;15.20;61.40;;;;;;5023600;28;20502;-78
2022/07/17 03:49:29;;;;;;;4.67;2.47;;;15.20;61.50;;;;;;5022028;28;20484;-78
2022/07/17 03:51:57;;;;;;;5.80;2.50;;;15.20;61.40;;;;;;5022274;28;21109;-78
2022/07/17 03:54:25;;;;;;;4.87;2.40;;;15.10;61.40;;;;;;5022823;28;20602;-77
2022/07/17 03:56:54;;;;;;;4.87;2.43;;;15.00;61.30;;;;;;5020457;28;20476;-77
2022/07/17 03:59:22;;;;;;;7.93;2.63;;;14.90;61.40;;;;;;5019122;28;20464;-77
2022/07/17 04:01:50;;;;;;;5.40;2.40;;;14.90;61.60;;;;;;5026491;28;20482;-77
2022/07/17 04:04:18;;;;;;;4.83;2.20;;;14.90;61.70;;;;;;5029112;28;20521;-77
2022/07/17 04:06:46;;;;;;;4.93;2.07;;;14.90;61.80;;;;;;5024913;28;20987;-77
2022/07/17 04:09:14;;;;;;;5.90;2.53;;;14.90;61.80;;;;;;5032037;28;20462;-76
2022/07/17 04:11:42;;;;;;;4.90;2.70;;;15.00;62.00;;;;;;5027523;28;20464;-76
2022/07/17 04:14:11;;;;;;;6.83;2.40;;;15.00;61.80;;;;;;5029967;28;20480;-76
2022/07/17 04:16:39;;;;;;;5.47;2.60;;;15.00;61.90;;;;;;5027183;28;20495;-76
2022/07/17 04:19:07;;;;;;;4.83;2.27;;;15.10;62.10;;;;;;5017594;28;20799;-76
2022/07/17 04:21:35;;;;;;;6.70;2.53;;;15.10;62.20;;;;;;5024350;28;20459;-76
2022/07/17 04:24:04;;;;;;;6.60;2.20;;;15.20;62.10;;;;;;5027271;28;20448;-78
2022/07/17 04:26:31;;;;;;;5.13;2.27;;;15.30;62.10;;;;;;5026400;28;20506;-78
2022/07/17 04:29:02;;;;;;;5.70;2.70;;;15.40;62.10;;;;;;5026347;28;20581;-78
2022/07/17 04:31:33;;;;;;;4.37;2.40;;;15.50;62.10;;;;;;5023992;28;20480;-78
2022/07/17 04:34:01;;;;;;;9.00;2.70;;;15.60;62.00;;;;;;5023111;28;20488;-78
2022/07/17 04:36:28;;;;;;;4.53;2.20;;;15.60;61.90;;;;;;5024260;28;20488;-78
2022/07/17 04:38:56;;;;;;;10.07;2.57;;;15.70;61.80;;;;;;5026539;28;20486;-78
2022/07/17 04:41:24;;;;;;;6.00;2.73;;;15.70;62.00;;;;;;5026691;28;20567;-78
2022/07/17 04:43:53;;;;;;;5.43;2.10;;;15.80;62.00;;;;;;5022657;28;20543;-77
2022/07/17 04:46:21;;;;;;;5.63;2.13;;;15.90;62.00;;;;;;5023377;28;21012;-77
2022/07/17 04:48:51;;;;;;;6.43;2.40;;;16.00;62.10;;;;;;5020801;28;20457;-77
2022/07/17 04:51:18;;;;;;;6.33;2.80;;;16.30;62.20;;;;;;5001882;28;20492;-78
2022/07/17 04:53:46;;;;;;;5.00;2.37;;;16.50;62.10;;;;;;5020763;28;20459;-77
2022/07/17 04:56:14;;;;;;;4.53;2.20;;;16.60;61.90;;;;;;5021432;28;21004;-77
2022/07/17 04:58:42;;;;;;;4.80;2.37;;;16.80;61.80;;;;;;5023597;28;20460;-77
2022/07/17 05:01:10;;;;;;;5.23;2.20;;;16.90;61.90;;;;;;5020330;28;20912;-77
2022/07/17 05:03:38;;;;;;;10.10;2.37;;;17.10;61.70;;;;;;5027713;28;20467;-77
2022/07/17 05:06:09;;;;;;;4.60;2.30;;;17.30;61.70;;;;;;5024527;28;20479;-77
2022/07/17 05:08:37;;;;;;;5.10;2.47;;;17.40;61.50;;;;;;5024117;28;20490;-76
2022/07/17 05:11:05;;;;;;;6.23;3.07;;;17.60;61.50;;;;;;5024453;28;20461;-76
2022/07/17 05:13:33;;;;;;;4.20;1.90;;;17.70;61.30;;;;;;5023463;28;20471;-77
2022/07/17 05:16:01;;;;;;;7.10;2.10;;;17.90;61.20;;;;;;5028755;28;20476;-77
2022/07/17 05:18:29;;;;;;;8.07;2.10;;;18.00;61.30;;;;;;5024887;28;20551;-77
2022/07/17 05:20:57;;;;;;;4.70;2.13;;;18.20;61.30;;;;;;5025935;28;20471;-77
2022/07/17 05:23:26;;;;;;;7.73;2.43;;;18.40;61.30;;;;;;5024481;28;20889;-77
2022/07/17 05:25:54;;;;;;;5.77;2.23;;;18.70;61.10;;;;;;5022488;28;20478;-78
2022/07/17 05:28:22;;;;;;;5.90;2.17;;;18.90;61.10;;;;;;5024122;28;20986;-77
2022/07/17 05:30:50;;;;;;;9.87;2.50;;;19.10;61.10;;;;;;5007088;28;20488;-77
2022/07/17 05:33:18;;;;;;;5.47;2.17;;;19.40;61.20;;;;;;5005681;28;20469;-77
2022/07/17 05:35:46;;;;;;;5.53;2.20;;;19.70;61.70;;;;;;5004635;28;20499;-77
2022/07/17 05:38:20;;;;;;;7.70;2.13;;;20.30;61.70;;;;;;5000723;28;20825;-77
2022/07/17 05:40:49;;;;;;;8.30;1.83;;;21.30;60.60;;;;;;5003699;28;20517;-77
2022/07/17 05:43:17;;;;;;;6.87;1.83;;;22.50;58.40;;;;;;4988486;28;20891;-77
2022/07/17 05:45:45;;;;;;;6.33;2.33;;;23.70;56.40;;;;;;5006544;28;20480;-76
2022/07/17 05:48:13;;;;;;;6.93;1.50;;;24.90;54.70;;;;;;5023316;28;20505;-77
2022/07/17 05:50:41;;;;;;;9.00;1.87;;;25.90;53.30;;;;;;5023878;28;20473;-77
2022/07/17 05:53:09;;;;;;;4.43;1.50;;;26.90;52.10;;;;;;5023876;28;20472;-77
2022/07/17 05:55:37;;;;;;;5.77;1.60;;;27.70;50.60;;;;;;5023724;28;20499;-77
2022/07/17 05:58:07;;;;;;;4.50;1.37;;;28.20;49.50;;;;;;5020008;28;20807;-77
2022/07/17 06:00:35;;;;;;;11.30;1.57;;;28.60;48.50;;;;;;5022099;28;20486;-77
2022/07/17 06:03:03;;;;;;;8.70;1.80;;;28.90;48.00;;;;;;5020635;28;20498;-78
2022/07/17 06:05:31;;;;;;;6.00;1.70;;;29.10;47.60;;;;;;5022055;28;20481;-76
2022/07/17 06:08:00;;;;;;;4.80;1.43;;;29.30;47.10;;;;;;5024884;28;20554;-77
2022/07/17 06:10:28;;;;;;;6.40;1.60;;;29.30;46.40;;;;;;5024868;28;20483;-76
2022/07/17 06:12:57;;;;;;;6.03;1.40;;;29.50;46.10;;;;;;5024773;28;20661;-77
2022/07/17 06:15:26;;;;;;;5.70;1.50;;;29.70;45.80;;;;;;5022291;28;20921;-77
2022/07/17 06:17:54;;;;;;;6.33;1.90;;;29.80;45.00;;;;;;5022455;28;20556;-77
2022/07/17 06:20:22;;;;;;;18.03;1.97;;;29.70;44.50;;;;;;5025091;28;20975;-77
2022/07/17 06:22:50;;;;;;;4.43;1.33;;;29.00;44.30;;;;;;5020575;28;20469;-77
2022/07/17 06:25:18;;;;;;;12.00;3.10;;;28.10;44.80;;;;;;5024984;28;20481;-77
2022/07/17 06:27:46;;;;;;;4.40;1.43;;;27.20;45.20;;;;;;5023078;28;20474;-77
2022/07/17 06:30:16;;;;;;;6.80;1.30;;;26.40;46.20;;;;;;5018092;28;20476;-77
2022/07/17 06:32:45;;;;;;;5.60;1.50;;;25.70;46.50;;;;;;5019794;28;21135;-77
2022/07/17 06:35:13;;;;;;;5.77;1.83;;;25.10;46.80;;;;;;5024744;28;20499;-77
2022/07/17 06:37:41;;;;;;;9.93;1.97;;;24.30;47.20;;;;;;5021096;28;21299;-76
2022/07/17 06:40:10;;;;;;;5.13;1.40;;;23.50;47.90;;;;;;5008417;28;21003;-76
2022/07/17 06:42:38;;;;;;;3.60;1.13;;;22.80;48.60;;;;;;5021282;28;20497;-76
2022/07/17 06:45:08;;;;;;;3.90;1.10;;;22.20;49.40;;;;;;5014716;28;20482;-76
2022/07/17 06:47:38;;;;;;;4.90;1.40;;;21.80;49.90;;;;;;5024117;28;20464;-76
2022/07/17 06:50:09;;;;;;;6.40;1.60;;;21.50;50.80;;;;;;5023157;28;21228;-76
2022/07/17 06:52:37;;;;;;;5.37;1.90;;;21.20;51.20;;;;;;5022848;28;20991;-77
2022/07/17 06:55:13;;;;;;;5.40;1.40;;;21.00;51.90;;;;;;5019453;28;20924;-77
2022/07/17 06:57:41;;;;;;;5.40;2.00;;;20.90;52.00;;;;;;5020295;28;20468;-77
2022/07/17 07:00:09;;;;;;;5.40;1.60;;;20.80;52.30;;;;;;5022807;28;21168;-76
2022/07/17 07:02:38;;;;;;;5.00;1.63;;;20.80;52.70;;;;;;5024095;28;20568;-77
2022/07/17 07:05:08;;;;;;;5.43;1.70;;;20.80;53.10;;;;;;5022818;28;20847;-76
2022/07/17 07:07:36;;;;;;;3.80;1.30;;;20.70;53.10;;;;;;5020653;28;20470;-76
2022/07/17 07:10:05;;;;;;;8.50;1.90;;;20.60;53.50;;;;;;5023112;28;20460;-76
2022/07/17 07:12:33;;;;;;;7.40;1.63;;;20.60;54.00;;;;;;5022369;28;20465;-76
2022/07/17 07:15:00;;;;;;;6.27;1.87;;;20.60;53.90;;;;;;5021295;28;20482;-77
2022/07/17 07:17:29;;;;;;;5.30;1.47;;;20.60;54.10;;;;;;5020242;28;20484;-77
2022/07/17 07:19:57;;;;;;;5.40;1.57;;;20.60;54.20;;;;;;5021625;28;20470;-76
2022/07/17 07:22:26;;;;;;;7.23;1.53;;;20.60;54.30;;;;;;5006787;28;20475;-77
2022/07/17 07:24:54;;;;;;;6.27;1.80;;;20.60;54.40;;;;;;5019014;28;20475;-77
2022/07/17 07:27:22;;;;;;;6.90;1.47;;;20.60;54.50;;;;;;5021416;28;20456;-77
2022/07/17 07:29:50;;;;;;;5.40;1.40;;;20.70;54.30;;;;;;5022859;28;21004;-76
2022/07/17 07:32:18;;;;;;;7.67;1.70;;;20.70;54.30;;;;;;5017913;28;20478;-76
2022/07/17 07:34:46;;;;;;;4.70;1.10;;;20.80;54.30;;;;;;5015968;28;20465;-76
2022/07/17 07:37:14;;;;;;;5.27;2.00;;;20.80;54.30;;;;;;5026159;28;20492;-76
2022/07/17 07:39:44;;;;;;;5.23;1.40;;;20.90;54.30;;;;;;5026998;28;20456;-76
2022/07/17 07:42:12;;;;;;;7.10;1.73;;;20.90;54.30;;;;;;5027713;28;20557;-77
2022/07/17 07:44:40;;;;;;;3.80;1.30;;;20.90;54.10;;;;;;5025802;28;20467;-76
2022/07/17 07:47:07;;;;;;;5.60;1.40;;;20.90;54.30;;;;;;5023281;28;20485;-76
2022/07/17 07:49:35;;;;;;;4.80;1.33;;;20.90;54.30;;;;;;5023814;28;20475;-76
2022/07/17 07:52:07;;;;;;;5.03;1.50;;;21.00;54.20;;;;;;5022357;28;20501;-76
2022/07/17 07:54:36;;;;;;;10.07;1.70;;;21.00;54.20;;;;;;5025293;28;21272;-76
2022/07/17 07:57:05;;;;;;;5.97;1.70;;;21.10;54.20;;;;;;5026281;28;20492;-76
2022/07/17 07:59:33;;;;;;;4.00;1.03;;;21.10;54.20;;;;;;5027492;28;20943;-76
2022/07/17 08:02:01;;;;;;;5.50;1.40;;;21.20;54.10;;;;;;5022628;28;20475;-76
2022/07/17 08:04:30;;;;;;;5.27;1.43;;;21.20;54.10;;;;;;5025715;28;20460;-76
2022/07/17 08:06:58;;;;;;;4.00;1.37;;;21.30;54.10;;;;;;5027866;28;20476;-76
2022/07/17 08:09:26;;;;;;;6.77;1.47;;;21.30;54.00;;;;;;5025279;28;21318;-76
2022/07/17 08:11:53;;;;;;;5.00;1.20;;;21.40;54.00;;;;;;5021752;28;20458;-76
2022/07/17 08:14:23;;;;;;;5.17;1.67;;;21.40;53.90;;;;;;5024193;28;20458;-76
2022/07/17 08:16:51;;;;;;;5.20;1.43;;;21.40;53.80;;;;;;5009440;28;20550;-76
2022/07/17 08:19:19;;;;;;;4.63;1.30;;;21.50;53.70;;;;;;5025134;28;20460;-76
2022/07/17 08:21:47;;;;;;;5.90;1.43;;;21.50;53.70;;;;;;5023694;28;20552;-76
2022/07/17 08:24:15;;;;;;;5.50;1.40;;;21.60;53.80;;;;;;5015907;28;20447;-76
2022/07/17 08:26:44;;;;;;;6.83;1.70;;;21.60;53.60;;;;;;5026287;28;20499;-76
2022/07/17 08:29:12;;;;;;;6.13;1.30;;;21.70;53.40;;;;;;5023948;28;20465;-76
2022/07/17 08:31:41;;;;;;;4.70;1.30;;;21.70;53.40;;;;;;5025282;28;21029;-76
2022/07/17 08:34:09;;;;;;;5.70;1.40;;;21.80;53.20;;;;;;5026694;28;20474;-76
2022/07/17 08:36:37;;;;;;;6.27;1.70;;;21.80;53.00;;;;;;5025636;28;20857;-76
2022/07/17 08:39:05;;;;;;;4.60;1.37;;;21.80;53.10;;;;;;5024909;28;20477;-76
2022/07/17 08:41:37;;;;;;;7.10;1.40;;;21.80;53.00;;;;;;5026167;28;20479;-76
2022/07/17 08:44:06;;;;;;;5.10;1.50;;;21.90;53.00;;;;;;5025662;28;20464;-75
2022/07/17 08:46:37;;;;;;;5.53;1.27;;;21.90;52.70;;;;;;5035373;28;20484;-76
2022/07/17 08:49:08;;;;;;;5.73;1.30;;;21.90;52.80;;;;;;5025414;28;20461;-75
2022/07/17 08:51:37;;;;;;;5.97;1.33;;;21.90;52.80;;;;;;5026665;28;20474;-75
2022/07/17 08:54:13;;;;;;;5.90;1.37;;;22.00;52.70;;;;;;5026436;28;20549;-75
2022/07/17 08:56:41;;;;;;;5.53;1.40;;;22.10;52.60;;;;;;5026472;28;20504;-75
2022/07/17 08:59:09;;;;;;;5.17;1.60;;;22.10;52.50;;;;;;5029015;28;20459;-75
2022/07/17 09:01:37;;;;;;;5.90;1.47;;;22.10;52.40;;;;;;5026336;28;20497;-75
2022/07/17 09:04:09;;;;;;;4.10;1.40;;;22.10;52.30;;;;;;5023387;28;20553;-75
2022/07/17 09:06:38;;;;;;;6.97;1.70;;;22.20;52.40;;;;;;5021675;28;20515;-76
2022/07/17 09:09:07;;;;;;;5.47;1.40;;;22.20;52.20;;;;;;5007923;28;20491;-76
2022/07/17 09:11:47;;;;;;;6.07;1.90;;;22.30;52.20;;;;;;5023631;28;20480;-76
2022/07/17 09:14:15;;;;;;;5.80;1.20;;;22.30;52.10;;;;;;5027960;28;20459;-76
2022/07/17 09:16:51;;;;;;;4.87;1.43;;;22.30;52.00;;;;;;5031168;28;20476;-75
2022/07/17 09:19:32;;;;;;;5.10;1.30;;;22.40;51.70;;;;;;5031235;28;20471;-76
2022/07/17 09:22:08;;;;;;;3.90;1.10;;;22.40;51.70;;;;;;5031767;28;20470;-75
2022/07/17 09:24:48;;;;;;;4.70;1.37;;;22.40;51.60;;;;;;5034088;28;20475;-75
2022/07/17 09:27:31;;;;;;;4.47;1.20;;;22.40;51.40;;;;;;5032368;28;20471;-75
2022/07/17 09:30:01;;;;;;;4.77;1.37;;;22.50;51.60;;;;;;5038198;28;20497;-76
2022/07/17 09:32:35;;;;;;;5.17;1.47;;;22.50;51.60;;;;;;5030503;28;21024;-75
2022/07/17 09:35:07;;;;;;;7.40;1.50;;;22.60;51.40;;;;;;5033111;28;21228;-75
2022/07/17 09:37:36;;;;;;;4.67;1.53;;;22.60;51.40;;;;;;5024843;28;20482;-75
2022/07/17 09:40:10;;;;;;;4.27;1.43;;;22.70;51.30;;;;;;5022249;28;20462;-75
2022/07/17 09:42:38;;;;;;;4.77;1.50;;;22.70;51.20;;;;;;5022162;28;20459;-75
2022/07/17 09:45:09;;;;;;;4.90;1.50;;;22.70;51.10;;;;;;5023305;28;20842;-74
2022/07/17 09:47:39;;;;;;;9.20;2.60;;;22.80;51.00;;;;;;5025203;28;20452;-75
2022/07/17 09:50:09;;;;;;;4.70;1.50;;;22.80;51.00;;;;;;5025276;28;20486;-76
2022/07/17 09:52:38;;;;;;;4.00;0.90;;;22.90;50.90;;;;;;5023321;28;20552;-75
2022/07/17 09:55:07;;;;;;;6.87;1.73;;;22.90;50.90;;;;;;5023602;28;21049;-75
2022/07/17 09:57:55;;;;;;;6.30;1.67;;;23.00;50.80;;;;;;5023062;28;20488;-76
2022/07/17 10:00:23;;;;;;;3.90;1.23;;;23.00;50.70;;;;;;5020193;28;20468;-76
2022/07/17 10:02:53;;;;;;;4.87;1.63;;;23.10;50.50;;;;;;5025651;28;20458;-76
2022/07/17 10:05:23;;;;;;;5.73;1.27;;;23.20;50.40;;;;;;5021615;28;20537;-76
2022/07/17 10:07:52;;;;;;;5.80;1.43;;;23.30;50.30;;;;;;5024685;28;20445;-75
2022/07/17 10:10:20;;;;;;;4.90;1.30;;;23.30;50.20;;;;;;5024050;28;20476;-75
2022/07/17 10:12:51;;;;;;;5.60;1.53;;;23.30;50.20;;;;;;5023258;28;20475;-75
2022/07/17 10:15:24;;;;;;;4.83;1.37;;;23.40;49.80;;;;;;5023996;28;20484;-75
2022/07/17 10:17:52;;;;;;;4.77;1.17;;;23.40;49.80;;;;;;5021044;28;20492;-75
2022/07/17 10:20:27;;;;;;;4.47;1.30;;;23.40;49.60;;;;;;5022925;28;20461;-76
2022/07/17 10:22:55;;;;;;;5.20;1.20;;;23.50;49.50;;;;;;5020389;28;20473;-75
2022/07/17 10:25:23;;;;;;;4.30;1.37;;;23.50;49.30;;;;;;5023621;28;20492;-76
2022/07/17 10:27:54;;;;;;;4.20;1.50;;;23.60;49.30;;;;;;5022769;28;20474;-75
2022/07/17 10:30:27;;;;;;;4.57;1.37;;;23.50;49.10;;;;;;5024512;28;20492;-75
2022/07/17 10:32:58;;;;;;;4.10;1.30;;;23.60;49.00;;;;;;5020474;28;20472;-76
2022/07/17 10:35:29;;;;;;;4.93;1.50;;;23.60;48.90;;;;;;5021020;28;21059;-76
2022/07/17 10:37:58;;;;;;;4.17;1.40;;;23.60;48.90;;;;;;5023181;28;20484;-76
2022/07/17 10:40:28;;;;;;;5.03;1.30;;;23.60;48.80;;;;;;5021891;28;20848;-75
2022/07/17 10:42:58;;;;;;;5.60;1.40;;;23.60;48.70;;;;;;5022967;28;20454;-75
2022/07/17 10:45:32;;;;;;;4.30;1.00;;;23.70;48.60;;;;;;5020019;28;20498;-76
2022/07/17 10:48:02;;;;;;;6.00;1.60;;;23.70;48.60;;;;;;5022997;28;20513;-75
2022/07/17 10:50:35;;;;;;;5.10;1.30;;;23.70;48.60;;;;;;5023007;28;20482;-76
2022/07/17 10:53:09;;;;;;;5.20;1.30;;;23.70;48.40;;;;;;5018918;28;20468;-76
2022/07/17 10:55:39;;;;;;;4.97;1.60;;;23.80;48.20;;;;;;5023155;28;20486;-76
2022/07/17 10:58:33;;;;;;;5.80;1.03;;;23.80;48.10;;;;;;5024261;28;20532;-75
2022/07/17 11:01:07;;;;;;;4.13;1.20;;;23.90;47.70;;;;;;5004653;28;21075;-75
2022/07/17 11:03:41;;;;;;;5.87;1.20;;;24.00;47.80;;;;;;5019595;28;20483;-76
2022/07/17 11:06:17;;;;;;;4.30;1.50;;;24.10;47.70;;;;;;5023686;28;20476;-75
2022/07/17 11:08:47;;;;;;;4.43;1.33;;;24.10;47.60;;;;;;5022231;28;20542;-76
2022/07/17 11:11:16;;;;;;;4.90;1.70;;;24.20;47.50;;;;;;5021072;28;20461;-76
2022/07/17 11:13:54;;;;;;;4.43;1.40;;;24.20;47.40;;;;;;5021780;28;20559;-75
2022/07/17 11:16:26;;;;;;;4.53;1.50;;;24.20;47.20;;;;;;5021526;28;20474;-75
2022/07/17 11:18:55;;;;;;;4.67;1.30;;;24.20;47.10;;;;;;5022030;28;20484;-76
2022/07/17 11:21:24;;;;;;;7.30;1.67;;;24.30;46.50;;;;;;5023611;28;20469;-76
2022/07/17 11:23:55;;;;;;;4.73;1.30;;;24.40;46.80;;;;;;5018222;28;20458;-76
2022/07/17 11:26:23;;;;;;;4.00;1.17;;;24.40;46.70;;;;;;5019948;28;20489;-76
2022/07/17 11:28:52;;;;;;;5.50;1.10;;;24.50;46.40;;;;;;5022502;28;20869;-76
2022/07/17 11:31:29;;;;;;;4.20;1.40;;;24.50;46.40;;;;;;5020450;28;20485;-76
2022/07/17 11:33:59;;;;;;;4.50;1.20;;;24.50;46.30;;;;;;5021475;28;20479;-76
2022/07/17 11:36:31;;;;;;;6.10;1.33;;;24.50;45.80;;;;;;5021561;28;20512;-76
2022/07/17 11:39:01;;;;;;;3.87;1.10;;;24.60;46.00;;;;;;5020654;28;20489;-76
2022/07/17 11:41:35;;;;;;;4.67;1.70;;;24.60;46.00;;;;;;5018351;28;20479;-76
2022/07/17 11:44:04;;;;;;;4.00;1.20;;;24.60;45.90;;;;;;5020788;28;20798;-76
2022/07/17 11:46:33;;;;;;;5.40;1.40;;;24.60;45.90;;;;;;5019796;28;20495;-76
2022/07/17 11:49:01;;;;;;;4.23;1.27;;;24.60;45.90;;;;;;5018522;28;20455;-76
2022/07/17 11:51:40;;;;;;;4.47;1.20;;;24.70;45.90;;;;;;5021987;28;20461;-76
2022/07/17 11:54:10;;;;;;;4.23;1.40;;;24.70;45.70;;;;;;5023031;28;20459;-76
2022/07/17 11:56:39;;;;;;;6.50;1.50;;;24.80;45.70;;;;;;5019692;28;20509;-76
2022/07/17 11:59:07;;;;;;;4.13;1.37;;;24.70;45.30;;;;;;5023083;28;20512;-76
2022/07/17 12:01:40;;;;;;;4.60;1.60;;;24.70;45.40;;;;;;5020983;28;20518;-76
2022/07/17 12:04:09;;;;;;;3.63;1.17;;;24.70;45.30;;;;;;5020410;28;20446;-76
2022/07/17 12:06:46;;;;;;;4.97;1.60;;;24.70;45.30;;;;;;5022341;28;20484;-76
2022/07/17 12:09:14;;;;;;;4.97;1.33;;;24.70;45.20;;;;;;5024390;28;20546;-76
2022/07/17 12:11:50;;;;;;;7.83;1.50;;;24.70;45.20;;;;;;5022147;28;20519;-75
2022/07/17 12:14:18;;;;;;;7.27;1.33;;;24.70;45.30;;;;;;5022042;28;20554;-75
2022/07/17 12:16:47;;;;;;;4.70;1.33;;;24.80;45.40;;;;;;5016669;28;20494;-75
2022/07/17 12:19:18;;;;;;;4.57;1.10;;;24.90;45.40;;;;;;5023515;28;20534;-75
2022/07/17 12:21:53;;;;;;;4.90;1.43;;;25.00;45.20;;;;;;5011051;28;20988;-75
2022/07/17 12:24:32;;;;;;;4.80;1.27;;;25.10;45.20;;;;;;5023126;28;20449;-75
2022/07/17 12:27:03;;;;;;;8.00;1.43;;;25.20;45.10;;;;;;5022637;28;20475;-75
2022/07/17 12:29:31;;;;;;;4.23;1.57;;;25.30;45.00;;;;;;5022837;28;21229;-75
2022/07/17 12:32:04;;;;;;;4.70;1.37;;;25.40;44.90;;;;;;5022486;28;20499;-75
2022/07/17 12:34:33;;;;;;;5.57;1.33;;;25.40;44.80;;;;;;5022568;28;20520;-75
2022/07/17 12:37:03;;;;;;;7.60;1.40;;;25.50;44.50;;;;;;5025836;28;20480;-75
2022/07/17 12:39:31;;;;;;;6.40;2.10;;;25.50;44.50;;;;;;5022985;28;20498;-75
2022/07/17 12:41:59;;;;;;;6.53;1.23;;;25.50;44.40;;;;;;5024850;28;20472;-75
2022/07/17 12:44:27;;;;;;;5.50;1.20;;;25.50;44.30;;;;;;5023256;28;20455;-75
2022/07/17 12:46:55;;;;;;;5.87;1.20;;;25.50;44.20;;;;;;5026527;28;21018;-75
2022/07/17 12:49:25;;;;;;;4.33;1.40;;;25.60;44.10;;;;;;5025433;28;20462;-75
2022/07/17 12:51:53;;;;;;;5.43;1.50;;;25.60;43.80;;;;;;5021373;28;20524;-75
2022/07/17 12:54:22;;;;;;;5.30;1.20;;;25.70;43.70;;;;;;5024271;28;20485;-75
2022/07/17 12:57:37;;;;;;;8.43;1.50;;;25.80;43.70;;;;;;5028353;28;20485;-75